This is the latest recevied weather packets stored in our database for station/object K1AWR. If no packets are shown the sender has not sent any weather packets the latest 1 day(s).
| Time | Temp. | Humidity | Pressure | Rain* | Wind** | Luminosity | Snow |
|---|---|---|---|---|---|---|---|
| 1778067137 | 15.56° C | 79% | 1010.5 hPa | 0 mm | 0.89 m/s, 202° | 68 W/m² | - |
| 1778066833 | 15.56° C | 79% | 1010.2 hPa | 0 mm | 0 m/s | 76 W/m² | - |
| 1778066531 | 15.56° C | 79% | 1010.3 hPa | 0 mm | 0.89 m/s, 166° | 85 W/m² | - |
| 1778066228 | 15° C | 81% | 1010.5 hPa | 0 mm | 0 m/s | 78 W/m² | - |
| 1778065926 | 15° C | 81% | 1010.7 hPa | 0 mm | 0.89 m/s, 184° | 70 W/m² | - |
| 1778065623 | 15° C | 81% | 1010.6 hPa | 0 mm | 1.34 m/s, 205° | 52 W/m² | - |
| 1778065320 | 15° C | 82% | 1010.7 hPa | 0 mm | 0 m/s | 48 W/m² | - |
| 1778065017 | 14.44° C | 83% | 1010.5 hPa | 0 mm | 0.45 m/s, 152° | 47 W/m² | - |
| 1778064714 | 14.44° C | 83% | 1010.4 hPa | 0 mm | 0.45 m/s, 193° | 40 W/m² | - |
| 1778064412 | 14.44° C | 83% | 1010.7 hPa | 0 mm | 0 m/s | 20 W/m² | - |
| 1778064109 | 14.44° C | 83% | 1010.8 hPa | 0 mm | 0 m/s | 14 W/m² | - |
| 1778063806 | 14.44° C | 83% | 1010.6 hPa | 0 mm | 0.45 m/s, 181° | 16 W/m² | - |
| 1778063503 | 14.44° C | 83% | 1010.5 hPa | 0 mm | 0 m/s | 19 W/m² | - |
| 1778063201 | 14.44° C | 83% | 1010.5 hPa | 0 mm | 0 m/s | 24 W/m² | - |
| 1778062898 | 14.44° C | 83% | 1010.2 hPa | 0 mm | 0.89 m/s, 177° | 25 W/m² | - |
| 1778062595 | 13.89° C | 84% | 1010.3 hPa | 0 mm | 0 m/s | 22 W/m² | - |
| 1778062292 | 13.89° C | 84% | 1010.2 hPa | 0 mm | 0 m/s | 14 W/m² | - |
| 1778061991 | 13.89° C | 83% | 1010.6 hPa | 0 mm | 0.45 m/s, 187° | 9 W/m² | - |
| 1778061688 | 13.89° C | 83% | 1010.2 hPa | 0 mm | 0.89 m/s, 225° | 6 W/m² | - |
| 1778061386 | 13.89° C | 84% | 1010.3 hPa | 0 mm | 0 m/s | 4 W/m² | - |
| 1778061083 | 13.89° C | 83% | 1010.3 hPa | 0 mm | 0.45 m/s, 226° | 3 W/m² | - |
| 1778060780 | 13.89° C | 83% | 1010.2 hPa | 0 mm | 0.45 m/s, 168° | 2 W/m² | - |
| 1778060478 | 13.89° C | 83% | 1010.2 hPa | 0 mm | 0.45 m/s, 182° | 1 W/m² | - |
| 1778060176 | 13.89° C | 83% | 1010.3 hPa | 0 mm | 0 m/s | 1 W/m² | - |
| 1778059880 | 13.89° C | 83% | 1010.3 hPa | 0 mm | 0.45 m/s, 196° | 0 W/m² | - |
* Rain latest hour (hover to see other rain measurements)
** Current wind speed in m/s (hover to see current wind gust speed)